Time;durP1;ratioP1;P1;durP2;ratioP2;P2;SDS_P1;SDS_P2;PMS_P1;PMS_P2;Temp;Humidity;BMP_temperature;BMP_pressure;BME280_temperature;BME280_humidity;BME280_pressure;Samples;Min_cycle;Max_cycle;Signal;HPM_P1;HPM_P2
2021/03/28 00:01:09;;;;;;;5.97;3.30;;;4.50;46.70;;;;;;5032990;28;20195;-66
2021/03/28 00:04:03;;;;;;;11.52;4.30;;;4.50;39.00;;;;;;5032669;28;20341;-66
2021/03/28 00:06:51;;;;;;;7.95;3.22;;;4.50;31.60;;;;;;5031649;28;20533;-65
2021/03/28 00:09:42;;;;;;;9.07;3.65;;;4.50;30.20;;;;;;5033478;28;20191;-65
2021/03/28 00:12:12;;;;;;;7.65;3.53;;;4.50;29.30;;;;;;5036528;28;20211;-66
2021/03/28 00:14:45;;;;;;;22.27;5.20;;;4.60;19.50;;;;;;5036077;28;20181;-65
2021/03/28 00:17:20;;;;;;;8.88;3.55;;;4.60;11.30;;;;;;5036324;28;20183;-65
2021/03/28 00:19:58;;;;;;;15.23;4.20;;;4.40;1.00;;;;;;5036156;28;20179;-65
2021/03/28 00:22:35;;;;;;;3.92;2.90;;;4.50;4.00;;;;;;5036202;28;20599;-65
2021/03/28 00:25:13;;;;;;;9.02;3.88;;;4.50;1.00;;;;;;5035948;28;20258;-65
2021/03/28 00:27:52;;;;;;;12.52;3.90;;;4.50;1.00;;;;;;5035983;28;20180;-65
2021/03/28 00:30:21;;;;;;;12.48;3.88;;;4.50;1.00;;;;;;5036139;28;20181;-67
2021/03/28 00:32:58;;;;;;;11.05;4.15;;;4.50;1.00;;;;;;5036155;28;20181;-67
2021/03/28 00:35:35;;;;;;;6.68;3.70;;;4.50;1.00;;;;;;5035899;28;20657;-65
2021/03/28 00:38:12;;;;;;;10.75;3.70;;;4.50;1.00;;;;;;5035940;28;20181;-65
2021/03/28 00:40:39;;;;;;;12.57;3.85;;;4.50;1.00;;;;;;5034900;28;20195;-65
2021/03/28 00:43:16;;;;;;;13.23;4.38;;;4.50;1.00;;;;;;5035706;28;20252;-67
2021/03/28 00:45:41;;;;;;;13.30;4.07;;;4.60;1.00;;;;;;5035756;28;20214;-67
2021/03/28 00:48:10;;;;;;;12.43;5.90;;;4.50;1.00;;;;;;5034746;28;20245;-67
2021/03/28 00:50:50;;;;;;;8.15;3.63;;;4.50;1.00;;;;;;5035737;28;20620;-68
2021/03/28 00:53:38;;;;;;;8.98;3.10;;;4.60;1.00;;;;;;5035969;28;20558;-67
2021/03/28 00:56:17;;;;;;;12.18;4.30;;;4.60;1.00;;;;;;5036058;28;20576;-67
2021/03/28 00:58:48;;;;;;;11.55;4.15;;;4.60;1.00;;;;;;5035724;28;20504;-67
2021/03/28 01:01:22;;;;;;;10.23;4.80;;;4.60;1.00;;;;;;5035511;28;20179;-67
2021/03/28 01:03:59;;;;;;;9.23;3.53;;;4.60;1.00;;;;;;5035462;28;20187;-67
2021/03/28 01:06:36;;;;;;;10.20;3.55;;;4.70;1.00;;;;;;5035318;28;20184;-67
2021/03/28 01:09:17;;;;;;;15.25;3.45;;;4.60;1.00;;;;;;5035521;28;20178;-67
2021/03/28 01:12:05;;;;;;;8.32;3.22;;;4.60;1.00;;;;;;5035317;28;20201;-67
2021/03/28 01:14:45;;;;;;;14.77;3.63;;;4.60;1.00;;;;;;5035148;28;20218;-67
2021/03/28 01:17:36;;;;;;;10.50;3.60;;;4.70;1.00;;;;;;5035175;28;20187;-67
2021/03/28 01:20:24;;;;;;;11.90;3.60;;;4.60;1.00;;;;;;5035489;28;20537;-67
2021/03/28 01:23:12;;;;;;;13.38;3.42;;;4.60;1.00;;;;;;5034493;28;20265;-67
2021/03/28 01:26:16;;;;;;;9.95;3.78;;;4.70;1.00;;;;;;5035228;28;20180;-67
2021/03/28 01:28:44;;;;;;;12.32;3.10;;;4.70;1.00;;;;;;5035123;28;20176;-67
2021/03/28 01:31:48;;;;;;;7.50;3.30;;;4.60;1.00;;;;;;5035096;28;20469;-67
2021/03/28 01:34:17;;;;;;;17.60;4.40;;;4.70;1.00;;;;;;5033398;28;20200;-67
2021/03/28 01:36:49;;;;;;;13.13;3.40;;;4.70;1.00;;;;;;5034784;28;20173;-66
2021/03/28 01:39:19;;;;;;;14.80;3.72;;;4.70;1.00;;;;;;5034948;28;20231;-66
2021/03/28 01:41:50;;;;;;;5.95;3.20;;;4.70;1.00;;;;;;5034754;28;20664;-66
2021/03/28 01:44:29;;;;;;;14.23;4.18;;;4.60;1.00;;;;;;5033410;28;20193;-66
2021/03/28 01:47:07;;;;;;;7.30;3.00;;;4.60;1.00;;;;;;5034563;28;20265;-66
2021/03/28 01:49:49;;;;;;;18.58;5.38;;;4.70;1.00;;;;;;5034617;28;20609;-66
2021/03/28 01:52:37;;;;;;;11.35;3.42;;;4.70;1.00;;;;;;5034859;28;20290;-66
2021/03/28 01:55:12;;;;;;;8.40;3.22;;;4.80;1.00;;;;;;5034302;28;20179;-66
2021/03/28 01:57:37;;;;;;;16.80;3.30;;;4.70;1.00;;;;;;5033618;28;20226;-66
2021/03/28 02:00:17;;;;;;;7.90;2.90;;;4.70;1.00;;;;;;5034513;28;20179;-67
2021/03/28 02:03:09;;;;;;;13.38;4.03;;;4.80;1.00;;;;;;5034327;28;20270;-67
2021/03/28 02:05:53;;;;;;;7.03;3.25;;;4.80;99.90;;;;;;5034425;28;20193;-67
2021/03/28 02:08:34;;;;;;;8.20;2.83;;;4.70;99.90;;;;;;5034489;28;20190;-66
2021/03/28 02:11:13;;;;;;;10.23;3.35;;;4.70;99.90;;;;;;5034299;28;20253;-66
2021/03/28 02:14:12;;;;;;;12.60;3.90;;;4.70;99.90;;;;;;5034208;28;20199;-65
2021/03/28 02:17:14;;;;;;;9.52;3.42;;;4.80;99.90;;;;;;5033160;28;20191;-65
2021/03/28 02:19:57;;;;;;;8.52;3.28;;;4.70;99.90;;;;;;5034100;28;20629;-65
2021/03/28 02:22:39;;;;;;;10.95;3.40;;;4.70;99.90;;;;;;5033920;28;20298;-65
2021/03/28 02:25:24;;;;;;;14.98;3.70;;;4.60;99.90;;;;;;5032750;28;20512;-65
2021/03/28 02:28:10;;;;;;;12.80;3.15;;;4.70;99.90;;;;;;5033857;28;20178;-65
2021/03/28 02:30:43;;;;;;;10.95;3.28;;;4.80;99.90;;;;;;5033720;28;20179;-65
2021/03/28 02:33:27;;;;;;;5.03;2.40;;;4.80;99.90;;;;;;5033317;28;20273;-65
2021/03/28 02:36:01;;;;;;;11.63;3.25;;;4.80;99.90;;;;;;5033625;28;20173;-65
2021/03/28 02:38:59;;;;;;;9.45;3.03;;;4.70;99.90;;;;;;5033686;28;20183;-65
2021/03/28 02:42:05;;;;;;;9.80;2.70;;;4.60;99.90;;;;;;5032459;28;20278;-65
2021/03/28 02:44:48;;;;;;;7.15;3.42;;;4.70;99.90;;;;;;5033411;28;20175;-65
2021/03/28 02:47:32;;;;;;;6.78;2.70;;;4.70;99.90;;;;;;5033581;28;20617;-65
2021/03/28 02:50:10;;;;;;;9.23;3.60;;;4.80;99.90;;;;;;5033537;28;20186;-65
2021/03/28 02:53:03;;;;;;;5.97;3.15;;;4.80;97.40;;;;;;5033544;28;20187;-66
2021/03/28 02:55:44;;;;;;;7.57;2.50;;;4.80;46.40;;;;;;5033644;28;20559;-66
2021/03/28 02:58:33;;;;;;;5.82;2.95;;;4.70;1.00;;;;;;5033476;28;20248;-66
2021/03/28 03:01:18;;;;;;;9.60;3.80;;;4.80;2.80;;;;;;5032392;28;20187;-67
2021/03/28 03:03:59;;;;;;;7.95;3.30;;;4.80;1.00;;;;;;5033336;28;20264;-67
2021/03/28 03:06:51;;;;;;;9.27;2.92;;;4.70;1.00;;;;;;5032393;28;20217;-67
2021/03/28 03:09:58;;;;;;;10.50;4.15;;;4.70;1.00;;;;;;5033414;28;20188;-67
2021/03/28 03:13:01;;;;;;;10.05;3.00;;;4.80;1.00;;;;;;5033311;28;20194;-67
2021/03/28 03:15:48;;;;;;;14.30;2.67;;;4.70;1.00;;;;;;5033061;28;20183;-67
2021/03/28 03:18:35;;;;;;;7.40;3.33;;;4.70;1.00;;;;;;5033371;28;20198;-67
2021/03/28 03:21:33;;;;;;;9.07;2.97;;;4.70;1.00;;;;;;5033251;28;20606;-67
2021/03/28 03:24:15;;;;;;;8.43;2.80;;;4.70;1.00;;;;;;5031911;28;20511;-67
2021/03/28 03:26:59;;;;;;;6.40;2.28;;;4.70;1.00;;;;;;5033216;28;20188;-67
2021/03/28 03:30:03;;;;;;;7.65;3.03;;;4.70;1.00;;;;;;5033173;28;20190;-67
2021/03/28 03:32:51;;;;;;;7.35;2.17;;;4.70;1.00;;;;;;5033230;28;20179;-67
2021/03/28 03:35:38;;;;;;;6.72;2.92;;;4.70;1.00;;;;;;5031955;28;20236;-67
2021/03/28 03:38:15;;;;;;;8.57;3.70;;;4.70;1.00;;;;;;5033201;28;20189;-68
2021/03/28 03:41:38;;;;;;;14.52;4.25;;;4.80;1.00;;;;;;5033198;28;20181;-67
2021/03/28 03:44:24;;;;;;;11.55;3.45;;;4.90;1.00;;;;;;5033017;28;20214;-67
2021/03/28 03:47:07;;;;;;;8.48;3.40;;;4.90;1.00;;;;;;5036824;28;20184;-67
2021/03/28 03:49:57;;;;;;;7.05;3.53;;;4.90;99.90;;;;;;5037445;28;20168;-67
2021/03/28 03:52:49;;;;;;;3.45;2.50;;;4.90;96.20;;;;;;5036954;28;20222;-67
2021/03/28 03:55:33;;;;;;;6.72;2.80;;;4.90;1.00;;;;;;5036532;28;20181;-67
2021/03/28 03:58:27;;;;;;;9.20;3.30;;;4.90;1.00;;;;;;5035650;28;20181;-67
2021/03/28 04:01:22;;;;;;;11.02;3.58;;;5.00;1.00;;;;;;5036700;28;20187;-67
2021/03/28 04:04:07;;;;;;;10.70;4.05;;;5.00;1.00;;;;;;5035627;28;20688;-67
2021/03/28 04:06:44;;;;;;;6.93;3.50;;;5.00;1.00;;;;;;5036365;28;20198;-67
2021/03/28 04:09:18;;;;;;;6.53;3.10;;;5.00;99.90;;;;;;5036518;28;20616;-67
2021/03/28 04:12:28;;;;;;;6.68;2.50;;;5.00;1.00;;;;;;5036529;28;20175;-67
2021/03/28 04:15:20;;;;;;;10.80;4.65;;;4.90;1.00;;;;;;5036309;28;20266;-67
2021/03/28 04:18:06;;;;;;;6.18;3.00;;;5.00;1.00;;;;;;5036679;28;20518;-67
2021/03/28 04:21:00;;;;;;;5.80;3.00;;;5.10;1.00;;;;;;5036185;28;20180;-67
2021/03/28 04:23:48;;;;;;;5.85;2.78;;;5.10;1.00;;;;;;5032759;28;20665;-67
2021/03/28 04:27:01;;;;;;;8.05;3.00;;;5.20;1.00;;;;;;5036272;28;20241;-66
2021/03/28 04:29:27;;;;;;;6.45;3.28;;;5.20;1.00;;;;;;5036105;28;20678;-66
2021/03/28 04:32:04;;;;;;;9.52;3.42;;;5.10;99.90;;;;;;5036227;28;20180;-66
2021/03/28 04:34:53;;;;;;;9.88;2.67;;;5.20;99.90;;;;;;5036145;28;20176;-66
2021/03/28 04:37:52;;;;;;;3.90;2.65;;;5.10;99.90;;;;;;5036211;28;20565;-65
2021/03/28 04:40:48;;;;;;;10.93;3.83;;;5.10;99.90;;;;;;5036098;28;20190;-65
2021/03/28 04:43:23;;;;;;;5.47;2.70;;;5.10;1.00;;;;;;5035590;28;20299;-66
2021/03/28 04:46:26;;;;;;;9.88;3.53;;;5.20;1.00;;;;;;5034828;28;20180;-66
2021/03/28 04:49:04;;;;;;;8.52;4.15;;;5.20;1.00;;;;;;5035692;28;20255;-66
2021/03/28 04:51:38;;;;;;;6.40;2.47;;;5.20;38.50;;;;;;5035833;28;20197;-66
2021/03/28 04:54:41;;;;;;;7.68;2.92;;;5.20;21.30;;;;;;5035477;28;20180;-66
2021/03/28 04:57:09;;;;;;;11.90;3.35;;;5.40;1.00;;;;;;5034504;28;20188;-66
2021/03/28 04:59:59;;;;;;;8.35;3.50;;;5.30;1.00;;;;;;5035721;28;20184;-68
2021/03/28 05:02:37;;;;;;;12.70;3.75;;;5.20;1.00;;;;;;5035638;28;20265;-67
2021/03/28 05:05:27;;;;;;;7.63;2.83;;;5.30;1.00;;;;;;5034427;28;20219;-67
2021/03/28 05:08:08;;;;;;;8.27;3.50;;;5.20;1.00;;;;;;5035768;28;20621;-67
2021/03/28 05:11:08;;;;;;;7.93;3.65;;;5.20;1.00;;;;;;5034762;28;20615;-68
2021/03/28 05:13:46;;;;;;;10.13;2.63;;;5.20;99.90;;;;;;5034446;28;20527;-68
2021/03/28 05:16:37;;;;;;;7.53;2.78;;;5.20;1.00;;;;;;5035490;28;20214;-68
2021/03/28 05:19:23;;;;;;;10.27;2.53;;;5.30;1.00;;;;;;5035392;28;20645;-66
2021/03/28 05:22:11;;;;;;;8.25;2.53;;;5.30;1.00;;;;;;5035446;28;20216;-66
2021/03/28 05:25:03;;;;;;;10.73;4.13;;;5.30;1.00;;;;;;5034303;28;20478;-66
2021/03/28 05:28:00;;;;;;;7.15;2.83;;;5.30;1.00;;;;;;5035020;28;20184;-67
2021/03/28 05:30:53;;;;;;;5.88;3.00;;;5.30;1.00;;;;;;5035055;28;20185;-66
2021/03/28 05:33:34;;;;;;;4.60;2.67;;;5.30;1.00;;;;;;5034720;28;20190;-66
2021/03/28 05:36:30;;;;;;;8.07;2.60;;;5.40;1.00;;;;;;5035043;28;20643;-67
2021/03/28 05:39:35;;;;;;;13.77;3.60;;;5.40;1.00;;;;;;5034913;28;20262;-67
2021/03/28 05:42:28;;;;;;;11.00;2.58;;;5.40;99.90;;;;;;5034752;28;20231;-66
2021/03/28 05:45:19;;;;;;;8.90;2.97;;;5.40;99.90;;;;;;5034701;28;20189;-67
2021/03/28 05:48:12;;;;;;;5.05;2.63;;;5.50;1.00;;;;;;5034892;28;20181;-67
2021/03/28 05:51:17;;;;;;;11.05;3.67;;;5.60;1.00;;;;;;5034838;28;20234;-66
2021/03/28 05:53:45;;;;;;;4.68;2.40;;;5.60;1.00;;;;;;5034434;28;20200;-66
2021/03/28 05:56:48;;;;;;;6.70;4.03;;;5.60;1.00;;;;;;5034532;28;20258;-66
2021/03/28 05:59:30;;;;;;;9.13;3.45;;;5.60;1.00;;;;;;5033590;28;20182;-66
2021/03/28 06:02:21;;;;;;;8.07;3.20;;;5.70;1.00;;;;;;5033588;28;20205;-66
2021/03/28 06:05:28;;;;;;;7.93;5.28;;;5.80;87.60;;;;;;5034076;28;20190;-66
2021/03/28 06:08:12;;;;;;;8.18;3.60;;;5.80;1.00;;;;;;5033684;28;20625;-66
2021/03/28 06:10:57;;;;;;;11.65;3.35;;;5.90;1.00;;;;;;5033266;28;20606;-66
2021/03/28 06:13:41;;;;;;;8.90;3.13;;;6.00;99.90;;;;;;5034215;28;20177;-66
2021/03/28 06:16:20;;;;;;;7.10;3.60;;;6.00;99.90;;;;;;5034317;28;20313;-66
2021/03/28 06:18:51;;;;;;;10.38;3.78;;;6.00;1.00;;;;;;5034046;28;20669;-66
2021/03/28 06:21:34;;;;;;;5.45;3.22;;;6.10;1.00;;;;;;5033978;28;20193;-66
2021/03/28 06:24:28;;;;;;;9.52;3.85;;;6.10;1.00;;;;;;5034028;28;20213;-67
2021/03/28 06:27:51;;;;;;;9.27;3.35;;;6.10;1.00;;;;;;5033983;28;20200;-66
2021/03/28 06:30:52;;;;;;;10.45;3.30;;;6.10;1.00;;;;;;5032195;28;20224;-65
2021/03/28 06:33:39;;;;;;;10.40;4.40;;;6.30;1.00;;;;;;5015523;28;20608;-66
2021/03/28 06:36:24;;;;;;;9.68;3.70;;;6.40;99.90;;;;;;5033906;28;20196;-66
2021/03/28 06:39:26;;;;;;;10.68;3.55;;;6.40;99.90;;;;;;5033865;28;20227;-67
2021/03/28 06:42:29;;;;;;;6.85;3.78;;;6.50;99.90;;;;;;5033983;28;20205;-67
2021/03/28 06:45:27;;;;;;;6.72;4.10;;;6.60;1.00;;;;;;5033477;28;20263;-67
2021/03/28 06:48:01;;;;;;;9.52;3.40;;;6.60;1.00;;;;;;5033680;28;20173;-67
2021/03/28 06:50:50;;;;;;;8.95;2.90;;;6.90;1.00;;;;;;5029344;28;20196;-67
2021/03/28 06:53:36;;;;;;;7.82;4.20;;;6.90;99.90;;;;;;5031759;28;20268;-66
2021/03/28 06:56:20;;;;;;;10.45;4.22;;;6.90;1.00;;;;;;5024468;28;20195;-66
2021/03/28 06:59:10;;;;;;;6.95;3.50;;;6.80;1.00;;;;;;5023409;28;20205;-66
2021/03/28 07:02:18;;;;;;;7.20;4.22;;;6.80;1.00;;;;;;5027383;28;20664;-66
2021/03/28 07:05:00;;;;;;;7.20;3.08;;;6.90;1.00;;;;;;5031656;28;20231;-66
2021/03/28 07:07:44;;;;;;;6.93;3.15;;;7.20;99.90;;;;;;5032283;28;20198;-65
2021/03/28 07:10:27;;;;;;;8.43;3.15;;;7.40;99.90;;;;;;5033396;28;20196;-67
2021/03/28 07:13:20;;;;;;;6.70;3.88;;;7.60;1.00;;;;;;5032417;28;20287;-67
2021/03/28 07:16:23;;;;;;;7.20;3.10;;;7.70;1.00;;;;;;5033351;28;20209;-68
2021/03/28 07:19:11;;;;;;;9.77;3.30;;;7.70;1.00;;;;;;5033380;28;20193;-68
2021/03/28 07:21:48;;;;;;;13.05;3.83;;;7.80;1.00;;;;;;5037379;28;20506;-68
2021/03/28 07:24:48;;;;;;;8.88;4.28;;;7.90;1.00;;;;;;5037222;28;20673;-68
2021/03/28 07:27:29;;;;;;;12.57;3.85;;;7.90;1.00;;;;;;5037415;28;20210;-67
2021/03/28 07:30:19;;;;;;;11.57;3.92;;;7.70;1.00;;;;;;5036445;28;20174;-67
2021/03/28 07:33:03;;;;;;;8.93;3.63;;;7.80;1.00;;;;;;5037222;28;20181;-67
2021/03/28 07:35:48;;;;;;;6.68;3.42;;;7.90;1.00;;;;;;5036959;28;20178;-67
2021/03/28 07:38:55;;;;;;;15.52;4.90;;;8.00;1.00;;;;;;5036769;28;20244;-67
2021/03/28 07:41:48;;;;;;;16.40;4.43;;;7.90;1.00;;;;;;5027329;28;20222;-66
2021/03/28 07:44:56;;;;;;;5.82;3.05;;;7.80;1.00;;;;;;5035276;28;20702;-66
2021/03/28 07:47:54;;;;;;;9.90;4.15;;;8.00;1.00;;;;;;5029477;28;20272;-66
2021/03/28 07:50:50;;;;;;;13.32;3.90;;;8.20;1.00;;;;;;5037059;28;20448;-66
2021/03/28 07:53:41;;;;;;;10.60;4.05;;;8.40;1.00;;;;;;5036269;28;20190;-66
2021/03/28 07:56:59;;;;;;;11.07;3.67;;;8.40;1.00;;;;;;5036972;28;20177;-66
2021/03/28 07:59:49;;;;;;;21.77;10.70;;;8.60;1.00;;;;;;5028360;28;20258;-66
2021/03/28 08:02:27;;;;;;;20.67;9.93;;;8.50;1.00;;;;;;5036834;28;20201;-66
2021/03/28 08:05:27;;;;;;;20.52;9.98;;;8.70;99.90;;;;;;5035415;28;20197;-66
2021/03/28 08:08:20;;;;;;;11.27;3.97;;;8.90;99.90;;;;;;5036549;28;20185;-67
2021/03/28 08:11:32;;;;;;;6.32;3.50;;;8.90;99.90;;;;;;5035621;28;20355;-67
2021/03/28 08:14:19;;;;;;;6.63;3.42;;;9.10;99.90;;;;;;5036083;28;20268;-66
2021/03/28 08:17:16;;;;;;;7.45;3.45;;;9.10;99.90;;;;;;5036425;28;20179;-66
2021/03/28 08:20:07;;;;;;;9.38;3.22;;;9.20;99.90;;;;;;5035617;28;20520;-68
2021/03/28 08:22:41;;;;;;;7.70;3.58;;;9.50;93.00;;;;;;5036299;28;20216;-68
2021/03/28 08:25:44;;;;;;;10.10;3.42;;;9.60;73.30;;;;;;5036104;28;20191;-68
2021/03/28 08:28:39;;;;;;;7.00;3.30;;;9.50;15.10;;;;;;5035199;28;20272;-68
2021/03/28 08:31:34;;;;;;;4.85;3.80;;;9.60;99.90;;;;;;5035664;28;20236;-68
2021/03/28 08:34:37;;;;;;;9.30;4.18;;;9.70;99.90;;;;;;5034917;28;20236;-68
2021/03/28 08:37:27;;;;;;;9.68;3.22;;;9.90;99.90;;;;;;5036013;28;20559;-67
2021/03/28 08:40:30;;;;;;;7.72;3.80;;;10.00;11.00;;;;;;5035230;28;20189;-67
2021/03/28 08:43:24;;;;;;;5.97;3.10;;;10.40;26.80;;;;;;5035813;28;20292;-67
2021/03/28 08:46:08;;;;;;;6.75;4.32;;;10.40;1.00;;;;;;5035841;28;20186;-67
2021/03/28 08:48:48;;;;;;;6.05;3.20;;;10.60;1.00;;;;;;5034998;28;20178;-66
2021/03/28 08:51:17;;;;;;;9.95;3.08;;;10.80;1.00;;;;;;5035760;28;20181;-67
2021/03/28 08:53:51;;;;;;;7.60;3.75;;;11.00;1.00;;;;;;5034427;28;20188;-67
2021/03/28 08:57:02;;;;;;;4.25;2.90;;;11.20;1.00;;;;;;5036303;28;20472;-69
2021/03/28 08:59:43;;;;;;;8.73;3.97;;;11.80;99.90;;;;;;5027425;28;20193;-69
2021/03/28 09:02:21;;;;;;;7.95;3.72;;;11.90;99.90;;;;;;5035688;28;20213;-67
2021/03/28 09:05:04;;;;;;;4.97;2.60;;;11.80;99.90;;;;;;5035754;28;20200;-67
2021/03/28 09:07:43;;;;;;;10.40;3.80;;;11.30;1.00;;;;;;5034667;28;20213;-65
2021/03/28 09:10:31;;;;;;;6.03;3.78;;;11.00;1.00;;;;;;5025056;28;20183;-66
2021/03/28 09:13:12;;;;;;;6.43;3.00;;;11.10;1.00;;;;;;5029487;28;20213;-67
2021/03/28 09:15:50;;;;;;;9.88;3.22;;;11.50;1.00;;;;;;5034727;28;20272;-68
2021/03/28 09:18:43;;;;;;;5.18;3.42;;;11.70;1.00;;;;;;5028618;28;20189;-67
2021/03/28 09:21:38;;;;;;;9.43;2.85;;;11.80;1.00;;;;;;5036172;28;20182;-68
2021/03/28 09:24:33;;;;;;;7.43;3.25;;;12.20;99.90;;;;;;5034302;28;20189;-68
2021/03/28 09:27:17;;;;;;;7.30;3.10;;;11.90;99.90;;;;;;5034411;28;20182;-68
2021/03/28 09:30:01;;;;;;;5.03;2.45;;;11.60;1.00;;;;;;5029767;28;20204;-68
2021/03/28 09:33:20;;;;;;;6.65;2.70;;;11.70;1.00;;;;;;5026183;28;20201;-68
2021/03/28 09:36:10;;;;;;;6.70;2.67;;;11.80;1.00;;;;;;5032795;28;20705;-68
2021/03/28 09:39:00;;;;;;;6.30;2.75;;;12.10;1.00;;;;;;5028149;28;20216;-68
2021/03/28 09:41:44;;;;;;;7.28;3.05;;;12.50;99.90;;;;;;5033878;28;20248;-70
2021/03/28 09:44:45;;;;;;;5.40;2.70;;;12.30;99.90;;;;;;5034888;28;20178;-68
2021/03/28 09:47:52;;;;;;;8.27;2.90;;;12.10;99.90;;;;;;5034837;28;20223;-68
2021/03/28 09:50:28;;;;;;;6.78;2.80;;;12.10;99.90;;;;;;5033593;28;20234;-68
2021/03/28 09:53:31;;;;;;;2.90;2.50;;;12.40;99.90;;;;;;5034980;28;20181;-68
2021/03/28 09:56:22;;;;;;;4.60;2.55;;;12.40;99.90;;;;;;5034564;28;20393;-69
2021/03/28 09:58:56;;;;;;;9.45;3.70;;;12.60;99.90;;;;;;5034948;28;20178;-69
2021/03/28 10:02:01;;;;;;;3.78;2.95;;;12.80;99.90;;;;;;5026840;28;20185;-63
2021/03/28 10:05:08;;;;;;;9.98;2.70;;;13.00;99.90;;;;;;5033084;28;20202;-67
2021/03/28 10:07:55;;;;;;;6.63;2.90;;;12.70;99.90;;;;;;5026722;28;20214;-68
2021/03/28 10:10:52;;;;;;;5.53;2.60;;;12.70;99.90;;;;;;5028439;28;20708;-68
2021/03/28 10:13:18;;;;;;;7.18;2.92;;;13.10;99.90;;;;;;5033562;28;20197;-67
2021/03/28 10:15:55;;;;;;;4.07;2.93;;;12.70;98.70;;;;;;5033995;28;20182;-67
2021/03/28 10:18:27;;;;;;;5.13;2.40;;;12.80;99.90;;;;;;5024400;28;20619;-67
2021/03/28 10:20:57;;;;;;;5.53;2.65;;;12.80;99.90;;;;;;5034090;28;20190;-67
2021/03/28 10:23:41;;;;;;;8.48;4.00;;;13.20;99.90;;;;;;5033008;28;20550;-63
2021/03/28 10:26:06;;;;;;;6.72;2.72;;;13.20;51.00;;;;;;5033748;28;20185;-67
2021/03/28 10:28:46;;;;;;;6.93;2.70;;;13.00;99.90;;;;;;5033713;28;20183;-67
2021/03/28 10:31:15;;;;;;;5.35;2.75;;;13.00;99.90;;;;;;5034086;28;20193;-67
2021/03/28 10:34:02;;;;;;;7.13;2.70;;;13.10;99.90;;;;;;5033443;28;20198;-68
2021/03/28 10:36:52;;;;;;;5.78;2.70;;;13.10;99.90;;;;;;5032656;28;20539;-67
2021/03/28 10:39:29;;;;;;;6.50;2.70;;;12.50;99.90;;;;;;5033942;28;20239;-67
2021/03/28 10:42:16;;;;;;;7.10;3.28;;;12.80;99.90;;;;;;5033562;28;20308;-67
2021/03/28 10:45:01;;;;;;;6.63;3.15;;;12.90;99.90;;;;;;5033647;28;20189;-68
2021/03/28 10:47:44;;;;;;;3.42;2.22;;;13.10;99.90;;;;;;5032673;28;20233;-68
2021/03/28 10:50:33;;;;;;;6.75;2.92;;;13.20;99.90;;;;;;5033544;28;20179;-67
2021/03/28 10:53:07;;;;;;;4.75;2.08;;;13.30;86.80;;;;;;5032071;28;20241;-66
2021/03/28 10:55:45;;;;;;;6.70;3.35;;;13.20;99.90;;;;;;5032555;28;20276;-67
2021/03/28 10:58:14;;;;;;;5.25;2.47;;;12.90;99.90;;;;;;5032461;28;20187;-66
2021/03/28 11:01:17;;;;;;;4.75;2.55;;;13.00;99.90;;;;;;5033157;28;20297;-67
2021/03/28 11:04:01;;;;;;;8.82;3.35;;;13.30;99.90;;;;;;5032647;28;20205;-66
2021/03/28 11:06:57;;;;;;;4.28;2.53;;;13.20;99.90;;;;;;5033603;28;20659;-66
2021/03/28 11:09:59;;;;;;;2.17;1.98;;;13.20;99.90;;;;;;5032411;28;20180;-67
2021/03/28 11:12:59;;;;;;;4.32;2.40;;;12.90;99.90;;;;;;5032449;28;20307;-71
2021/03/28 11:15:46;;;;;;;5.65;2.97;;;13.10;99.90;;;;;;5033537;28;20187;-68
2021/03/28 11:18:49;;;;;;;7.47;3.90;;;13.10;99.90;;;;;;5033608;28;20174;-65
2021/03/28 11:21:45;;;;;;;10.32;2.50;;;12.90;99.90;;;;;;5032248;28;20518;-64
2021/03/28 11:24:39;;;;;;;8.32;3.05;;;13.10;99.90;;;;;;5035484;28;20190;-66
2021/03/28 11:27:25;;;;;;;10.23;2.80;;;13.40;99.90;;;;;;5053338;28;20255;-68
2021/03/28 11:29:56;;;;;;;5.60;2.10;;;13.00;99.90;;;;;;5052933;28;20520;-68
2021/03/28 11:32:47;;;;;;;6.80;2.55;;;13.20;99.90;;;;;;5052902;28;20603;-67
2021/03/28 11:35:31;;;;;;;4.07;2.53;;;13.10;99.90;;;;;;5052535;28;20177;-66
2021/03/28 11:38:15;;;;;;;9.40;2.53;;;13.10;99.90;;;;;;5052840;28;20272;-65
2021/03/28 11:40:43;;;;;;;8.52;3.22;;;13.20;99.90;;;;;;5053202;28;20173;-65
2021/03/28 11:43:09;;;;;;;5.05;2.63;;;13.20;99.90;;;;;;5052569;28;20214;-67
2021/03/28 11:45:43;;;;;;;5.60;3.00;;;13.40;99.90;;;;;;5052916;28;20248;-68
2021/03/28 11:48:30;;;;;;;5.03;2.75;;;13.70;99.90;;;;;;5052969;28;20512;-65
2021/03/28 11:51:12;;;;;;;4.68;2.42;;;13.60;99.90;;;;;;5053156;28;20209;-66
2021/03/28 11:53:39;;;;;;;9.38;3.05;;;13.40;99.90;;;;;;5052781;28;20189;-68
2021/03/28 11:56:33;;;;;;;6.35;2.30;;;13.40;99.90;;;;;;5052937;28;20525;-65
2021/03/28 11:59:28;;;;;;;6.90;2.67;;;13.70;99.90;;;;;;5053132;28;20191;-66
2021/03/28 12:02:01;;;;;;;4.88;2.47;;;13.90;99.90;;;;;;5052690;28;20236;-65
2021/03/28 12:04:42;;;;;;;8.55;2.97;;;14.10;99.90;;;;;;5053056;28;20610;-64
2021/03/28 12:07:20;;;;;;;4.20;1.90;;;14.00;99.90;;;;;;5054979;28;20209;-68
2021/03/28 12:10:00;;;;;;;6.20;2.95;;;13.70;99.90;;;;;;5045040;28;20188;-68
2021/03/28 12:12:29;;;;;;;4.85;1.90;;;13.60;99.90;;;;;;5036479;28;20245;-65
2021/03/28 12:14:55;;;;;;;5.40;2.30;;;13.60;99.90;;;;;;5036334;28;20179;-67
2021/03/28 12:17:23;;;;;;;3.95;2.00;;;13.80;99.90;;;;;;5036469;28;20236;-65
2021/03/28 12:20:00;;;;;;;4.18;2.08;;;14.10;99.90;;;;;;5036209;28;20204;-65
2021/03/28 12:22:32;;;;;;;6.55;2.55;;;14.20;99.90;;;;;;5036247;28;20285;-64
2021/03/28 12:25:13;;;;;;;7.60;2.67;;;14.50;99.90;;;;;;5033755;28;20240;-65
2021/03/28 12:27:57;;;;;;;6.25;2.95;;;14.90;50.00;;;;;;5033338;28;20219;-64
2021/03/28 12:30:28;;;;;;;5.32;3.20;;;14.90;26.90;;;;;;5029662;28;20180;-62
2021/03/28 12:33:08;;;;;;;4.25;2.80;;;14.40;93.30;;;;;;5036401;28;20180;-62
2021/03/28 12:35:39;;;;;;;6.40;2.88;;;14.20;99.90;;;;;;5036468;28;20238;-68
2021/03/28 12:38:27;;;;;;;8.23;2.65;;;14.20;99.90;;;;;;5036539;28;20183;-69
2021/03/28 12:41:28;;;;;;;8.43;3.60;;;13.60;99.90;;;;;;5036207;28;20195;-67
2021/03/28 12:44:06;;;;;;;4.90;2.58;;;13.60;99.90;;;;;;5035823;28;20541;-68
2021/03/28 12:46:31;;;;;;;8.77;4.70;;;13.70;99.90;;;;;;5036219;28;20182;-67
2021/03/28 12:49:23;;;;;;;7.10;2.70;;;13.40;99.90;;;;;;5036209;28;20240;-68
2021/03/28 12:52:00;;;;;;;8.10;3.35;;;13.10;1.00;;;;;;5032657;28;20187;-67
2021/03/28 12:54:35;;;;;;;4.75;2.92;;;13.00;1.00;;;;;;5035996;28;20182;-68
2021/03/28 12:57:28;;;;;;;3.30;2.33;;;12.90;1.00;;;;;;5036031;28;20180;-66
2021/03/28 13:00:26;;;;;;;7.68;3.45;;;12.70;1.00;;;;;;5035902;28;20179;-62
2021/03/28 13:02:54;;;;;;;7.20;3.70;;;12.80;99.90;;;;;;5035913;28;20327;-63
2021/03/28 13:05:31;;;;;;;8.88;3.53;;;12.70;1.00;;;;;;5035691;28;20186;-62
2021/03/28 13:07:59;;;;;;;6.47;3.50;;;12.60;1.00;;;;;;5035576;28;20232;-63
2021/03/28 13:10:35;;;;;;;7.43;3.05;;;12.50;5.30;;;;;;5034690;28;20294;-66
2021/03/28 13:13:05;;;;;;;4.70;3.00;;;12.00;99.90;;;;;;5036015;28;20189;-66
2021/03/28 13:15:45;;;;;;;8.20;3.35;;;12.10;1.00;;;;;;5035828;28;20178;-66
2021/03/28 13:18:24;;;;;;;3.63;3.00;;;12.20;1.00;;;;;;5035676;28;20178;-66
2021/03/28 13:20:59;;;;;;;7.30;2.58;;;12.20;1.00;;;;;;5035418;28;20178;-69
2021/03/28 13:23:29;;;;;;;8.75;4.10;;;12.50;99.90;;;;;;5034862;28;20209;-70
2021/03/28 13:26:21;;;;;;;6.88;3.97;;;12.60;99.90;;;;;;5035395;28;20185;-67
2021/03/28 13:29:13;;;;;;;5.70;2.55;;;12.50;99.90;;;;;;5034598;28;20323;-66
2021/03/28 13:31:44;;;;;;;8.93;3.35;;;12.50;99.90;;;;;;5035653;28;20186;-68
2021/03/28 13:34:33;;;;;;;5.90;3.20;;;12.40;1.00;;;;;;5034017;28;20273;-65
2021/03/28 13:37:20;;;;;;;11.98;3.35;;;12.60;1.00;;;;;;5034155;28;20209;-64
2021/03/28 13:40:00;;;;;;;6.75;3.45;;;12.80;99.90;;;;;;5035309;28;20254;-67
2021/03/28 13:42:38;;;;;;;6.32;3.10;;;12.70;99.90;;;;;;5035075;28;20540;-66
2021/03/28 13:45:27;;;;;;;7.70;2.88;;;12.40;1.00;;;;;;5034877;28;20252;-65
2021/03/28 13:48:00;;;;;;;6.25;3.30;;;12.00;99.90;;;;;;5034837;28;20170;-67
2021/03/28 13:50:44;;;;;;;6.43;3.20;;;12.00;99.90;;;;;;5033653;28;20574;-62
2021/03/28 13:53:16;;;;;;;4.30;2.65;;;12.10;1.00;;;;;;5034140;28;20265;-65
2021/03/28 13:56:17;;;;;;;5.55;3.65;;;12.30;1.00;;;;;;5034395;28;20236;-65
2021/03/28 13:58:45;;;;;;;6.18;3.30;;;12.50;1.00;;;;;;5034283;28;20629;-68
2021/03/28 14:01:54;;;;;;;6.20;3.30;;;12.80;1.00;;;;;;5034205;28;20182;-65
2021/03/28 14:04:39;;;;;;;7.60;3.70;;;12.90;98.60;;;;;;5034565;28;20178;-64
2021/03/28 14:07:20;;;;;;;7.53;3.40;;;12.80;99.90;;;;;;5034655;28;20190;-62
2021/03/28 14:10:06;;;;;;;5.32;3.55;;;12.90;99.90;;;;;;5034724;28;20730;-64
2021/03/28 14:13:04;;;;;;;14.20;4.30;;;12.70;99.90;;;;;;5034629;28;20228;-63
2021/03/28 14:15:34;;;;;;;4.60;3.22;;;12.70;99.90;;;;;;5034733;28;20277;-67
2021/03/28 14:18:22;;;;;;;8.38;4.32;;;12.60;1.00;;;;;;5033442;28;20179;-68
2021/03/28 14:20:49;;;;;;;10.20;4.53;;;12.50;99.90;;;;;;5034115;28;20186;-67
2021/03/28 14:23:19;;;;;;;6.53;4.43;;;12.60;99.90;;;;;;5033936;28;20202;-64
2021/03/28 14:26:16;;;;;;;6.75;3.35;;;12.60;99.90;;;;;;5034307;28;20185;-62
2021/03/28 14:28:48;;;;;;;6.90;3.20;;;12.50;99.90;;;;;;5033103;28;20190;-62
2021/03/28 14:31:22;;;;;;;8.93;3.20;;;12.40;1.00;;;;;;5033974;28;20603;-69